createdAt,value
2017-12-01T00:02:01.820Z,2.00
2017-12-01T00:04:28.255Z,1.90
2017-12-01T00:06:56.193Z,1.90
2017-12-01T00:09:24.232Z,1.90
2017-12-01T00:11:51.307Z,1.60
2017-12-01T00:14:19.583Z,1.50
2017-12-01T00:16:46.844Z,1.40
2017-12-01T00:19:15.715Z,1.30
2017-12-01T00:21:44.458Z,1.20
2017-12-01T00:24:10.812Z,1.10
2017-12-01T00:26:37.460Z,1.30
2017-12-01T00:29:07.923Z,1.30
2017-12-01T00:31:35.077Z,1.10
2017-12-01T00:34:02.394Z,1.30
2017-12-01T00:36:29.488Z,1.30
2017-12-01T00:38:56.749Z,1.10
2017-12-01T00:41:23.402Z,1.10
2017-12-01T00:43:49.930Z,1.00
2017-12-01T00:46:18.323Z,0.90
2017-12-01T00:48:45.638Z,0.90
2017-12-01T00:51:12.784Z,0.90
2017-12-01T00:53:41.096Z,0.90
2017-12-01T00:56:08.249Z,0.90
2017-12-01T00:58:34.725Z,0.90
2017-12-01T01:01:01.261Z,1.00
2017-12-01T01:03:28.441Z,1.00
2017-12-01T01:05:54.811Z,1.00
2017-12-01T01:08:21.396Z,1.10
2017-12-01T01:10:48.442Z,1.30
2017-12-01T01:13:15.940Z,1.40
2017-12-01T01:15:42.543Z,1.40
2017-12-01T01:18:08.982Z,1.40
2017-12-01T01:20:35.271Z,1.40
2017-12-01T01:23:01.772Z,1.40
2017-12-01T01:25:28.651Z,1.30
2017-12-01T01:27:57.955Z,1.20
2017-12-01T01:30:25.524Z,1.20
2017-12-01T01:32:52.818Z,1.20
2017-12-01T01:35:19.162Z,1.30
2017-12-01T01:37:45.661Z,1.50
2017-12-01T01:40:12.159Z,1.50
2017-12-01T01:42:38.474Z,1.50
2017-12-01T01:45:04.842Z,1.50
2017-12-01T01:47:33.714Z,1.70
2017-12-01T01:50:00.192Z,1.70
2017-12-01T01:52:26.911Z,1.70
2017-12-01T01:54:53.219Z,1.60
2017-12-01T01:57:21.003Z,1.50
2017-12-01T01:59:47.666Z,1.40
2017-12-01T02:02:25.320Z,1.30
2017-12-01T02:04:54.314Z,1.10
2017-12-01T02:07:22.237Z,1.00
2017-12-01T02:09:48.751Z,1.00
2017-12-01T02:12:15.282Z,1.00
2017-12-01T02:14:41.781Z,1.10
2017-12-01T02:17:08.812Z,1.00
2017-12-01T02:19:35.956Z,0.90
2017-12-01T02:22:09.006Z,0.90
2017-12-01T02:24:39.895Z,0.80
2017-12-01T02:27:06.283Z,0.80
2017-12-01T02:29:39.105Z,0.80
2017-12-01T02:32:12.628Z,0.80
2017-12-01T02:34:39.476Z,0.60
2017-12-01T02:37:06.125Z,0.60
2017-12-01T02:39:32.516Z,0.50
2017-12-01T02:41:59.763Z,0.40
2017-12-01T02:44:26.983Z,0.40
2017-12-01T02:46:53.621Z,0.40
2017-12-01T02:49:20.087Z,0.40
2017-12-01T02:51:47.513Z,0.40
2017-12-01T02:54:13.832Z,0.40
2017-12-01T02:56:41.022Z,0.30
2017-12-01T02:59:08.197Z,0.40
2017-12-01T03:01:34.682Z,0.40
2017-12-01T03:04:01.163Z,0.50
2017-12-01T03:06:29.762Z,0.50
2017-12-01T03:08:57.044Z,0.50
2017-12-01T03:11:25.012Z,0.50
2017-12-01T03:13:51.432Z,0.50
2017-12-01T03:16:18.119Z,0.50
2017-12-01T03:18:44.602Z,0.50
2017-12-01T03:21:11.043Z,0.50
2017-12-01T03:23:37.373Z,0.50
2017-12-01T03:26:04.613Z,0.30
2017-12-01T03:28:31.222Z,0.30
2017-12-01T03:30:57.733Z,0.30
2017-12-01T03:33:24.233Z,0.20
2017-12-01T03:35:50.664Z,0.10
2017-12-01T03:38:18.113Z,0.10
2017-12-01T03:40:44.502Z,0.10
2017-12-01T03:43:10.984Z,0.00
2017-12-01T03:45:37.578Z,0.00
2017-12-01T03:48:04.058Z,-0.10
2017-12-01T03:50:31.133Z,0.00
2017-12-01T03:52:57.654Z,0.00
2017-12-01T03:55:24.738Z,0.00
2017-12-01T03:57:51.044Z,0.10
2017-12-01T04:00:18.206Z,0.10
2017-12-01T04:02:44.692Z,0.10
2017-12-01T04:05:11.985Z,0.20
2017-12-01T04:07:38.652Z,0.20
2017-12-01T04:10:06.512Z,0.20
2017-12-01T04:12:34.590Z,0.20
2017-12-01T04:15:01.014Z,0.10
2017-12-01T04:17:27.472Z,0.00
2017-12-01T04:19:53.752Z,0.00
2017-12-01T04:22:20.995Z,-0.10
2017-12-01T04:24:47.478Z,-0.10
2017-12-01T04:27:13.826Z,-0.10
2017-12-01T04:29:40.292Z,0.10
2017-12-01T04:32:06.710Z,0.30
2017-12-01T04:34:33.752Z,0.20
2017-12-01T04:37:00.096Z,0.20
2017-12-01T04:39:26.550Z,0.10
2017-12-01T04:41:53.389Z,-0.10
2017-12-01T04:44:19.929Z,-0.20
2017-12-01T04:46:46.464Z,-0.30
2017-12-01T04:49:12.992Z,-0.40
2017-12-01T04:51:39.749Z,-0.50
2017-12-01T04:54:06.839Z,-0.60
2017-12-01T04:56:34.029Z,-0.60
2017-12-01T04:59:00.359Z,-0.60
2017-12-01T05:01:26.770Z,-0.50
2017-12-01T05:03:53.111Z,-0.40
2017-12-01T05:06:19.846Z,-0.20
2017-12-01T05:08:48.399Z,-0.10
2017-12-01T05:11:15.772Z,0.20
2017-12-01T05:13:42.051Z,0.20
2017-12-01T05:16:08.380Z,0.40
2017-12-01T05:18:34.652Z,0.40
2017-12-01T05:21:01.987Z,0.10
2017-12-01T05:23:28.416Z,0.00
2017-12-01T05:25:55.472Z,-0.10
2017-12-01T05:28:22.820Z,-0.10
2017-12-01T05:30:49.882Z,0.00
2017-12-01T05:33:17.270Z,0.00
2017-12-01T05:35:43.678Z,0.00
2017-12-01T05:38:09.981Z,0.10
2017-12-01T05:40:38.248Z,0.30
2017-12-01T05:43:06.435Z,0.40
2017-12-01T05:45:34.290Z,0.50
2017-12-01T05:48:00.873Z,0.40
2017-12-01T05:50:27.824Z,0.50
2017-12-01T05:52:54.940Z,0.40
2017-12-01T05:55:21.362Z,0.40
2017-12-01T05:57:48.599Z,0.20
2017-12-01T06:00:15.101Z,0.30
2017-12-01T06:02:42.856Z,0.10
2017-12-01T06:05:09.265Z,0.10
2017-12-01T06:07:35.862Z,0.20
2017-12-01T06:10:02.354Z,0.20
2017-12-01T06:12:28.692Z,0.20
2017-12-01T06:14:55.160Z,0.20
2017-12-01T06:17:22.277Z,0.10
2017-12-01T06:19:48.932Z,0.10
2017-12-01T06:22:15.819Z,0.10
2017-12-01T06:24:42.156Z,0.00
2017-12-01T06:27:08.488Z,-0.10
2017-12-01T06:29:35.082Z,-0.10
2017-12-01T06:32:01.550Z,-0.20
2017-12-01T06:34:28.918Z,-0.30
2017-12-01T06:36:55.707Z,-0.40
2017-12-01T06:39:23.832Z,-0.40
2017-12-01T06:41:50.773Z,-0.40
2017-12-01T06:44:18.172Z,-0.30
2017-12-01T06:46:45.802Z,-0.20
2017-12-01T06:49:12.323Z,-0.20
2017-12-01T06:51:39.784Z,-0.20
2017-12-01T06:54:06.422Z,-0.10
2017-12-01T06:56:32.992Z,-0.10
2017-12-01T06:58:59.642Z,0.00
2017-12-01T07:01:27.994Z,0.30
2017-12-01T07:03:56.638Z,0.30
2017-12-01T07:06:23.407Z,0.50
2017-12-01T07:08:51.196Z,0.60
2017-12-01T07:11:17.826Z,0.70
2017-12-01T07:13:44.700Z,0.70
2017-12-01T07:16:11.400Z,0.70
2017-12-01T07:18:38.859Z,0.90
2017-12-01T07:21:05.709Z,0.90
2017-12-01T07:23:33.049Z,1.10
2017-12-01T07:26:11.794Z,1.20
2017-12-01T07:28:39.089Z,1.30
2017-12-01T07:31:05.830Z,1.30
2017-12-01T07:33:33.060Z,1.20
2017-12-01T07:35:59.749Z,1.20
2017-12-01T07:38:26.489Z,1.20
2017-12-01T07:40:55.789Z,1.20
2017-12-01T07:43:22.569Z,1.20
2017-12-01T07:45:49.249Z,1.20
2017-12-01T07:48:17.011Z,1.20
2017-12-01T07:50:44.789Z,1.20
2017-12-01T07:53:13.520Z,1.20
2017-12-01T07:55:40.509Z,1.20
2017-12-01T07:58:07.089Z,1.20
2017-12-01T08:00:35.500Z,1.40
2017-12-01T08:03:05.139Z,1.40
2017-12-01T08:05:33.350Z,1.50
2017-12-01T08:08:00.689Z,1.70
2017-12-01T08:10:28.501Z,1.70
2017-12-01T08:12:56.769Z,1.70
2017-12-01T08:15:23.929Z,1.70
2017-12-01T08:17:51.547Z,1.70
2017-12-01T08:20:18.880Z,1.60
2017-12-01T08:22:51.559Z,1.60
2017-12-01T08:25:25.939Z,1.50
2017-12-01T08:27:53.700Z,1.50
2017-12-01T08:30:20.199Z,1.70
2017-12-01T08:32:46.919Z,1.60
2017-12-01T08:35:15.879Z,1.50
2017-12-01T08:37:44.729Z,1.50
2017-12-01T08:40:13.049Z,1.60
2017-12-01T08:42:40.130Z,1.60
2017-12-01T08:45:08.643Z,1.70
2017-12-01T08:47:35.459Z,1.70
2017-12-01T08:50:03.019Z,2.00
2017-12-01T08:52:30.373Z,2.20
2017-12-01T08:54:58.687Z,2.30
2017-12-01T08:57:25.252Z,2.30
2017-12-01T08:59:52.111Z,2.50
2017-12-01T09:02:19.185Z,2.50
2017-12-01T09:04:47.111Z,2.50
2017-12-01T09:07:13.757Z,2.50
2017-12-01T09:09:42.609Z,2.50
2017-12-01T09:12:09.130Z,2.50
2017-12-01T09:14:36.049Z,2.50
2017-12-01T09:17:02.567Z,2.40
2017-12-01T09:19:30.399Z,2.20
2017-12-01T09:21:58.389Z,2.20
2017-12-01T09:24:25.228Z,2.20
2017-12-01T09:26:52.668Z,2.20
2017-12-01T09:29:19.309Z,2.10
2017-12-01T09:31:46.090Z,2.20
2017-12-01T09:34:14.121Z,2.20
2017-12-01T09:36:42.259Z,2.20
2017-12-01T09:39:08.849Z,2.20
2017-12-01T09:41:37.398Z,2.20
2017-12-01T09:44:04.109Z,2.20
2017-12-01T09:46:32.489Z,2.20
2017-12-01T09:48:59.537Z,2.20
2017-12-01T09:51:26.169Z,2.20
2017-12-01T09:53:52.852Z,2.30
2017-12-01T09:56:20.249Z,2.40
2017-12-01T09:58:46.878Z,2.40
2017-12-01T10:01:13.519Z,2.50
2017-12-01T10:03:41.759Z,2.50
2017-12-01T10:06:08.329Z,2.50
2017-12-01T10:08:34.870Z,2.60
2017-12-01T10:11:01.650Z,2.80
2017-12-01T10:13:28.459Z,2.60
2017-12-01T10:15:55.321Z,2.50
2017-12-01T10:18:22.039Z,2.50
2017-12-01T10:20:48.619Z,2.60
2017-12-01T10:23:15.107Z,2.60
2017-12-01T10:25:41.482Z,2.70
2017-12-01T10:28:07.826Z,2.70
2017-12-01T10:30:35.172Z,2.90
2017-12-01T10:33:03.332Z,3.00
2017-12-01T10:35:29.610Z,3.00
2017-12-01T10:37:55.995Z,3.10
2017-12-01T10:40:23.353Z,3.80
2017-12-01T10:42:53.481Z,4.10
2017-12-01T10:45:20.013Z,4.10
2017-12-01T10:47:48.850Z,4.60
2017-12-01T10:50:15.301Z,4.60
2017-12-01T10:52:41.602Z,4.80
2017-12-01T10:55:07.896Z,5.00
2017-12-01T10:57:34.909Z,5.30
2017-12-01T11:00:01.712Z,5.30
2017-12-01T11:02:28.007Z,5.40
2017-12-01T11:04:54.974Z,5.50
2017-12-01T11:07:21.228Z,5.50
2017-12-01T11:09:47.520Z,5.50
2017-12-01T11:12:14.601Z,5.40
2017-12-01T11:14:40.857Z,5.40
2017-12-01T11:17:07.153Z,5.40
2017-12-01T11:19:35.252Z,5.40
2017-12-01T11:22:01.702Z,5.50
2017-12-01T11:24:28.628Z,5.40
2017-12-01T11:26:56.402Z,5.40
2017-12-01T11:29:24.220Z,5.30
2017-12-01T11:31:50.504Z,5.30
2017-12-01T11:34:17.085Z,5.30
2017-12-01T11:36:43.406Z,5.40
2017-12-01T11:39:09.679Z,5.40
2017-12-01T11:41:36.009Z,5.50
2017-12-01T11:44:02.382Z,5.60
2017-12-01T11:46:29.467Z,5.60
2017-12-01T11:48:55.759Z,5.60
2017-12-01T11:51:22.810Z,5.70
2017-12-01T11:53:49.131Z,5.70
2017-12-01T11:56:16.206Z,5.40
2017-12-01T11:58:42.661Z,5.40
2017-12-01T12:01:08.988Z,5.40
2017-12-01T12:03:35.297Z,5.30
2017-12-01T12:06:01.742Z,5.20
2017-12-01T12:08:28.175Z,5.10
2017-12-01T12:10:54.483Z,5.10
2017-12-01T12:13:20.794Z,5.10
2017-12-01T12:15:47.138Z,5.00
2017-12-01T12:18:13.448Z,4.90
2017-12-01T12:20:39.804Z,4.80
2017-12-01T12:23:06.100Z,4.70
2017-12-01T12:25:33.256Z,4.60
2017-12-01T12:28:00.289Z,4.60
2017-12-01T12:30:27.334Z,4.50
2017-12-01T12:32:54.368Z,4.50
2017-12-01T12:35:20.682Z,4.50
2017-12-01T12:37:48.471Z,4.60
2017-12-01T12:40:15.615Z,4.80
2017-12-01T12:42:42.661Z,4.90
2017-12-01T12:45:08.971Z,4.90
2017-12-01T12:47:35.273Z,4.90
2017-12-01T12:50:01.574Z,4.90
2017-12-01T12:52:27.903Z,4.90
2017-12-01T12:54:54.268Z,4.80
2017-12-01T12:57:22.250Z,4.50
2017-12-01T12:59:48.555Z,4.50
2017-12-01T13:02:14.891Z,4.40
2017-12-01T13:04:41.168Z,4.40
2017-12-01T13:07:08.243Z,4.30
2017-12-01T13:09:34.511Z,4.30
2017-12-01T13:12:00.871Z,4.30
2017-12-01T13:14:27.984Z,4.20
2017-12-01T13:16:54.270Z,4.20
2017-12-01T13:19:20.558Z,4.30
2017-12-01T13:21:46.874Z,4.20
2017-12-01T13:24:13.167Z,4.20
2017-12-01T13:26:39.459Z,4.40
2017-12-01T13:29:06.523Z,4.20
2017-12-01T13:31:32.820Z,4.20
2017-12-01T13:33:59.100Z,4.10
2017-12-01T13:36:25.407Z,4.00
2017-12-01T13:38:52.454Z,4.10
2017-12-01T13:41:19.464Z,4.00
2017-12-01T13:43:45.759Z,4.10
2017-12-01T13:46:12.039Z,4.00
2017-12-01T13:48:38.300Z,4.00
2017-12-01T13:51:04.593Z,3.90
2017-12-01T13:53:30.880Z,3.90
2017-12-01T13:55:57.194Z,4.00
2017-12-01T13:58:23.504Z,3.90
2017-12-01T14:00:50.581Z,4.00
2017-12-01T14:03:16.851Z,3.90
2017-12-01T14:05:43.116Z,3.90
2017-12-01T14:08:09.370Z,3.80
2017-12-01T14:10:35.624Z,4.00
2017-12-01T14:13:03.451Z,3.90
2017-12-01T14:15:31.171Z,3.90
2017-12-01T14:17:58.419Z,3.80
2017-12-01T14:20:25.404Z,3.80
2017-12-01T14:22:51.653Z,3.80
2017-12-01T14:25:17.904Z,3.80
2017-12-01T14:27:44.146Z,3.70
2017-12-01T14:30:11.105Z,3.60
2017-12-01T14:32:38.087Z,3.60
2017-12-01T14:35:04.324Z,3.50
2017-12-01T14:37:30.649Z,3.60
2017-12-01T14:39:56.863Z,3.60
2017-12-01T14:42:23.094Z,3.60
2017-12-01T14:44:49.372Z,3.60
2017-12-01T14:47:15.665Z,3.50
2017-12-01T14:49:41.885Z,3.50
2017-12-01T14:52:08.343Z,3.50
2017-12-01T14:54:34.595Z,3.50
2017-12-01T14:57:01.574Z,3.50
2017-12-01T14:59:27.857Z,3.50
2017-12-01T15:01:53.995Z,3.40
2017-12-01T15:04:20.940Z,3.20
2017-12-01T15:06:47.874Z,3.20
2017-12-01T15:09:14.817Z,3.20
2017-12-01T15:11:41.070Z,3.10
2017-12-01T15:14:07.231Z,3.10
2017-12-01T15:16:33.440Z,3.20
2017-12-01T15:18:59.654Z,3.10
2017-12-01T15:21:25.838Z,3.10
2017-12-01T15:23:52.029Z,3.10
2017-12-01T15:26:18.233Z,3.10
2017-12-01T15:28:44.445Z,3.00
2017-12-01T15:31:11.339Z,2.90
2017-12-01T15:33:37.913Z,2.90
2017-12-01T15:36:04.821Z,2.90
2017-12-01T15:38:30.990Z,2.90
2017-12-01T15:40:57.994Z,2.90
2017-12-01T15:43:24.254Z,2.80
2017-12-01T15:45:51.194Z,2.70
2017-12-01T15:48:18.179Z,2.60
2017-12-01T15:50:44.501Z,2.60
2017-12-01T15:53:10.782Z,2.60
2017-12-01T15:55:37.811Z,2.40
2017-12-01T15:58:04.241Z,2.40
2017-12-01T16:00:30.542Z,2.40
2017-12-01T16:02:56.851Z,2.40
2017-12-01T16:05:23.132Z,2.40
2017-12-01T16:07:49.419Z,2.40
2017-12-01T16:10:15.708Z,2.40
2017-12-01T16:12:41.965Z,2.40
2017-12-01T16:15:08.234Z,2.40
2017-12-01T16:17:34.470Z,2.40
2017-12-01T16:20:00.719Z,2.40
2017-12-01T16:22:26.935Z,2.50
2017-12-01T16:24:53.994Z,2.50
2017-12-01T16:27:20.186Z,2.50
2017-12-01T16:29:46.456Z,2.50
2017-12-01T16:32:13.473Z,2.60
2017-12-01T16:34:39.707Z,2.60
2017-12-01T16:37:05.993Z,2.60
2017-12-01T16:39:32.344Z,2.70
2017-12-01T16:41:58.662Z,2.70
2017-12-01T16:44:24.875Z,2.70
2017-12-01T16:46:51.361Z,2.80
2017-12-01T16:49:18.372Z,2.90
2017-12-01T16:51:44.607Z,2.80
2017-12-01T16:54:10.836Z,3.00
2017-12-01T16:56:37.071Z,2.90
2017-12-01T16:59:03.380Z,2.90
2017-12-01T17:01:29.622Z,2.80
2017-12-01T17:03:55.870Z,2.80
2017-12-01T17:06:22.862Z,2.80
2017-12-01T17:08:49.588Z,2.80
2017-12-01T17:11:15.816Z,2.80
2017-12-01T17:13:42.059Z,2.80
2017-12-01T17:16:08.266Z,2.80
2017-12-01T17:18:35.700Z,2.80
2017-12-01T17:21:02.802Z,2.70
2017-12-01T17:23:29.044Z,2.70
2017-12-01T17:25:56.045Z,2.70
2017-12-01T17:28:22.292Z,2.70
2017-12-01T17:30:48.628Z,2.70
2017-12-01T17:33:14.854Z,2.70
2017-12-01T17:35:41.092Z,2.70
2017-12-01T17:38:07.406Z,2.70
2017-12-01T17:40:35.676Z,2.70
2017-12-01T17:43:03.762Z,2.70
2017-12-01T17:45:30.054Z,2.70
2017-12-01T17:47:56.932Z,2.70
2017-12-01T17:50:23.479Z,2.60
2017-12-01T17:52:50.206Z,2.80
2017-12-01T17:55:16.796Z,2.60
2017-12-01T17:57:43.055Z,2.60
2017-12-01T18:00:09.700Z,2.50
2017-12-01T18:02:36.341Z,2.30
2017-12-01T18:05:02.819Z,2.10
2017-12-01T18:07:29.511Z,2.00
2017-12-01T18:09:56.050Z,1.80
2017-12-01T18:12:22.640Z,1.60
2017-12-01T18:14:49.481Z,1.50
2017-12-01T18:17:18.422Z,1.30
2017-12-01T18:19:45.130Z,1.30
2017-12-01T18:22:11.841Z,1.20
2017-12-01T18:24:39.150Z,1.10
2017-12-01T18:27:07.640Z,1.10
2017-12-01T18:29:34.360Z,1.10
2017-12-01T18:32:00.949Z,0.90
2017-12-01T18:34:28.395Z,0.80
2017-12-01T18:36:55.690Z,0.70
2017-12-01T18:39:25.970Z,0.70
2017-12-01T18:41:52.603Z,0.60
2017-12-01T18:44:20.948Z,0.50
2017-12-01T18:46:47.500Z,0.40
2017-12-01T18:49:15.460Z,0.30
2017-12-01T18:51:42.014Z,0.20
2017-12-01T18:54:08.553Z,0.30
2017-12-01T18:56:35.136Z,0.20
2017-12-01T18:59:03.822Z,0.10
2017-12-01T19:01:30.277Z,0.10
2017-12-01T19:03:56.829Z,0.00
2017-12-01T19:06:25.700Z,0.00
2017-12-01T19:08:52.270Z,0.20
2017-12-01T19:11:21.490Z,0.20
2017-12-01T19:13:49.018Z,0.20
2017-12-01T19:16:19.900Z,0.20
2017-12-01T19:18:46.690Z,0.10
2017-12-01T19:21:13.500Z,0.10
2017-12-01T19:23:43.156Z,0.20
2017-12-01T19:26:10.469Z,0.20
2017-12-01T19:28:37.270Z,0.10
2017-12-01T19:31:03.920Z,0.20
2017-12-01T19:33:30.540Z,0.20
2017-12-01T19:35:58.140Z,0.20
2017-12-01T19:38:25.540Z,0.10
2017-12-01T19:40:52.789Z,0.20
2017-12-01T19:43:20.060Z,0.50
2017-12-01T19:45:46.630Z,0.50
2017-12-01T19:48:13.176Z,0.70
2017-12-01T19:50:40.340Z,0.80
2017-12-01T19:53:07.660Z,0.90
2017-12-01T19:55:34.259Z,0.80
2017-12-01T19:58:00.930Z,0.70
2017-12-01T20:00:27.290Z,0.50
2017-12-01T20:02:53.830Z,0.40
2017-12-01T20:05:21.129Z,0.30
2017-12-01T20:07:47.679Z,0.30
2017-12-01T20:10:14.113Z,0.40
2017-12-01T20:12:40.449Z,0.60
2017-12-01T20:15:07.050Z,0.80
2017-12-01T20:17:33.490Z,1.00
2017-12-01T20:20:04.503Z,1.20
2017-12-01T20:22:31.829Z,1.50
2017-12-01T20:24:58.389Z,1.40
2017-12-01T20:27:25.770Z,1.70
2017-12-01T20:29:52.259Z,1.60
2017-12-01T20:32:18.583Z,1.70
2017-12-01T20:34:48.030Z,1.80
2017-12-01T20:37:15.510Z,1.90
2017-12-01T20:39:42.071Z,1.90
2017-12-01T20:42:08.667Z,2.00
2017-12-01T20:44:35.125Z,2.00
2017-12-01T20:47:04.755Z,2.10
2017-12-01T20:49:34.094Z,2.10
2017-12-01T20:52:02.375Z,2.20
2017-12-01T20:54:29.038Z,2.20
2017-12-01T20:56:55.445Z,2.20
2017-12-01T20:59:21.662Z,2.20
2017-12-01T21:01:48.034Z,2.20
2017-12-01T21:04:14.763Z,2.10
2017-12-01T21:06:42.509Z,2.10
2017-12-01T21:09:09.168Z,2.00
2017-12-01T21:11:36.651Z,2.00
2017-12-01T21:14:03.281Z,1.90
2017-12-01T21:16:29.751Z,1.90
2017-12-01T21:18:56.340Z,1.80
2017-12-01T21:21:22.813Z,1.80
2017-12-01T21:23:49.517Z,1.80
2017-12-01T21:26:16.120Z,1.70
2017-12-01T21:28:42.620Z,1.70
2017-12-01T21:31:10.211Z,1.60
2017-12-01T21:33:36.859Z,1.60
2017-12-01T21:36:03.491Z,1.50
2017-12-01T21:38:30.271Z,1.30
2017-12-01T21:40:57.472Z,1.10
2017-12-01T21:43:24.884Z,0.90
2017-12-01T21:45:51.973Z,0.70
2017-12-01T21:48:18.803Z,0.70
2017-12-01T21:50:46.191Z,0.50
2017-12-01T21:53:12.698Z,0.40
2017-12-01T21:55:39.047Z,0.20
2017-12-01T21:58:05.369Z,0.20
2017-12-01T22:00:31.675Z,0.10
2017-12-01T22:02:58.031Z,0.00
2017-12-01T22:05:24.571Z,0.00
2017-12-01T22:07:51.121Z,0.00
2017-12-01T22:10:17.540Z,0.00
2017-12-01T22:12:44.211Z,-0.10
2017-12-01T22:15:12.231Z,0.00
2017-12-01T22:17:39.620Z,0.00
2017-12-01T22:20:06.144Z,-0.10
2017-12-01T22:22:32.713Z,-0.20
2017-12-01T22:24:59.113Z,-0.10
2017-12-01T22:27:25.440Z,0.00
2017-12-01T22:29:51.991Z,0.20
2017-12-01T22:32:18.660Z,0.10
2017-12-01T22:34:46.030Z,0.10
2017-12-01T22:37:12.390Z,0.00
2017-12-01T22:39:40.311Z,0.00
2017-12-01T22:42:06.661Z,0.00
2017-12-01T22:44:33.033Z,0.10
2017-12-01T22:46:59.620Z,0.20
2017-12-01T22:49:26.460Z,0.00
2017-12-01T22:51:53.031Z,0.00
2017-12-01T22:54:21.431Z,-0.10
2017-12-01T22:56:47.930Z,0.10
2017-12-01T22:59:14.510Z,0.20
2017-12-01T23:01:41.170Z,0.30
2017-12-01T23:04:07.771Z,0.30
2017-12-01T23:06:34.210Z,0.20
2017-12-01T23:09:00.602Z,0.10
2017-12-01T23:11:27.090Z,0.10
2017-12-01T23:13:54.380Z,0.20
2017-12-01T23:16:22.401Z,0.10
2017-12-01T23:18:50.771Z,0.20
2017-12-01T23:21:17.881Z,0.30
2017-12-01T23:23:44.553Z,0.20
2017-12-01T23:26:11.111Z,0.20
2017-12-01T23:28:39.490Z,0.20
2017-12-01T23:31:06.686Z,0.30
2017-12-01T23:33:33.226Z,0.20
2017-12-01T23:36:00.120Z,0.40
2017-12-01T23:38:26.791Z,0.40
2017-12-01T23:40:53.289Z,0.40
2017-12-01T23:43:21.100Z,0.60
2017-12-01T23:45:47.475Z,0.60
2017-12-01T23:48:15.740Z,0.40
2017-12-01T23:50:42.170Z,0.40
2017-12-01T23:53:08.544Z,0.30
2017-12-01T23:55:35.152Z,0.20
2017-12-01T23:58:02.240Z,0.10
